AWOS
METAR for:KVYS (Peru/Illinois Valley Rgnl, IL, US)
Text:KVYS 300955Z AUTO 00000KT 10SM CLR 10/05 A3022 RMK AO2 T00970050 TSNO
Conditions at:0955 UTC 30 May 2024
Temperature: 9.7°C ( 49°F)
Dewpoint: 5.0°C ( 41°F) [RH = 72%]
Pressure (altimeter):30.22 inches Hg (1023.5 mb)
Winds:calm
Visibility:10 or more sm (16+ km)
Ceiling:at least 12,000 feet AGL
Clouds:sky clear below 12,000 feet AGL
QC Flag:automated observation with no human augmentation